Time;durP1;ratioP1;P1;durP2;ratioP2;P2;SDS_P1;SDS_P2;PMS_P1;PMS_P2;Temp;Humidity;BMP_temperature;BMP_pressure;BME280_temperature;BME280_humidity;BME280_pressure;Samples;Min_cycle;Max_cycle;Signal;HPM_P1;HPM_P2
2022/07/31 00:00:45;;;;;;;1.52;1.42;;;;;;;16.90;100.00;98301.59;4342682;32;20078;-74
2022/07/31 00:03:11;;;;;;;1.80;1.12;;;;;;;16.75;100.00;98278.25;4366726;32;20036;-73
2022/07/31 00:05:38;;;;;;;1.35;1.23;;;;;;;17.21;100.00;98328.84;4369911;32;20426;-74
2022/07/31 00:08:05;;;;;;;1.10;1.10;;;;;;;17.31;100.00;98335.12;4405280;32;20079;-74
2022/07/31 00:10:38;;;;;;;2.92;1.40;;;;;;;17.33;100.00;98322.84;4421760;32;20412;-74
2022/07/31 00:13:04;;;;;;;4.30;1.12;;;;;;;17.05;100.00;98320.25;4420588;32;20523;-74
2022/07/31 00:15:30;;;;;;;1.50;1.10;;;;;;;16.95;100.00;98333.31;4418488;32;20050;-74
2022/07/31 00:17:57;;;;;;;1.75;1.33;;;;;;;17.00;100.00;98319.59;4419842;32;20035;-73
2022/07/31 00:20:23;;;;;;;1.10;1.10;;;;;;;16.82;100.00;98273.22;4418603;32;20042;-73
2022/07/31 00:22:50;;;;;;;0.90;0.90;;;;;;;17.15;100.00;98321.12;4421360;32;20046;-73
2022/07/31 00:25:17;;;;;;;1.17;1.17;;;;;;;16.57;100.00;98282.78;4421538;32;20068;-73
2022/07/31 00:27:44;;;;;;;1.20;1.20;;;;;;;16.84;100.00;98308.25;4418522;32;20067;-73
2022/07/31 00:30:12;;;;;;;1.42;1.25;;;;;;;16.69;100.00;98269.44;4422194;32;20038;-73
2022/07/31 00:32:39;;;;;;;2.42;1.37;;;;;;;16.99;100.00;98324.22;4422424;32;20382;-73
2022/07/31 00:35:06;;;;;;;1.00;1.00;;;;;;;17.19;100.00;98335.72;4423266;32;20046;-74
2022/07/31 00:37:35;;;;;;;1.50;1.40;;;;;;;16.85;100.00;98304.44;4416513;32;20034;-74
2022/07/31 00:40:04;;;;;;;1.67;1.58;;;;;;;17.13;100.00;98293.44;4421103;32;20034;-73
2022/07/31 00:42:31;;;;;;;1.08;1.08;;;;;;;17.15;100.00;98277.59;4426096;32;20071;-73
2022/07/31 00:44:57;;;;;;;1.33;1.23;;;;;;;17.24;100.00;98324.69;4371568;32;20101;-74
2022/07/31 00:47:24;;;;;;;1.67;1.60;;;;;;;17.01;100.00;98291.28;4375529;32;20073;-73
2022/07/31 00:49:50;;;;;;;1.60;1.60;;;;;;;17.16;100.00;98325.44;4371541;32;20158;-73
2022/07/31 00:52:17;;;;;;;3.20;1.52;;;;;;;16.89;100.00;98300.00;4342395;33;20035;-73
2022/07/31 00:54:43;;;;;;;1.67;1.58;;;;;;;16.98;100.00;98298.12;4347866;32;20035;-73
2022/07/31 00:57:10;;;;;;;1.27;1.27;;;;;;;17.39;100.00;98328.94;4344139;32;20040;-74
2022/07/31 00:59:36;;;;;;;1.10;1.10;;;;;;;17.25;100.00;98318.16;4344825;32;20127;-73
2022/07/31 01:02:03;;;;;;;5.57;1.55;;;;;;;16.88;100.00;98309.25;4343318;32;20188;-74
2022/07/31 01:04:29;;;;;;;1.77;1.60;;;;;;;17.23;100.00;98336.69;4346072;32;20438;-73
2022/07/31 01:06:56;;;;;;;1.40;1.30;;;;;;;17.35;100.00;98320.59;4311917;33;20033;-73
2022/07/31 01:09:23;;;;;;;1.50;1.40;;;;;;;17.49;100.00;98333.34;4309235;33;20037;-74
2022/07/31 01:11:52;;;;;;;3.22;1.73;;;;;;;17.15;100.00;98285.75;4314794;33;20056;-72
2022/07/31 01:14:23;;;;;;;1.40;1.30;;;;;;;17.39;100.00;98324.31;4309856;33;20032;-74
2022/07/31 01:16:52;;;;;;;1.62;1.40;;;;;;;17.92;100.00;98310.97;4327047;33;20058;-73
2022/07/31 01:19:44;;;;;;;1.17;1.17;;;;;;;17.35;100.00;98279.78;4331083;33;20074;-73
2022/07/31 01:22:36;;;;;;;1.98;1.10;;;;;;;17.73;100.00;98311.97;4326904;32;20062;-73
2022/07/31 01:25:06;;;;;;;1.33;1.30;;;;;;;17.76;100.00;98310.56;4372737;32;20048;-73
2022/07/31 01:27:57;;;;;;;1.30;1.30;;;;;;;17.34;100.00;98305.41;4367544;32;20077;-73
2022/07/31 01:30:31;;;;;;;1.83;1.73;;;;;;;17.63;100.00;98306.81;4367457;32;21346;-72
2022/07/31 01:33:04;;;;;;;1.17;1.17;;;;;;;17.54;100.00;98295.09;4369551;32;20121;-73
2022/07/31 01:35:39;;;;;;;0.82;0.82;;;;;;;17.39;100.00;98307.16;4371789;32;20043;-73
2022/07/31 01:38:11;;;;;;;0.90;0.90;;;;;;;17.31;100.00;98300.59;4392990;32;20035;-73
2022/07/31 01:40:43;;;;;;;;;;;;;;;17.09;100.00;98270.69;4389787;32;20068;-73
2022/07/31 01:43:24;;;;;;;7.62;1.10;;;;;;;18.08;100.00;98301.22;4391080;32;19934;-73
2022/07/31 01:45:54;;;;;;;1.10;1.10;;;;;;;17.77;100.00;98247.63;4388601;32;20043;-73
2022/07/31 01:48:31;;;;;;;1.00;1.00;;;;;;;17.72;100.00;98250.47;4392934;32;20042;-73
2022/07/31 01:51:01;;;;;;;1.95;0.62;;;;;;;17.43;100.00;98287.19;4373760;32;20088;-73
2022/07/31 01:53:33;;;;;;;1.37;1.30;;;;;;;17.11;100.00;98252.16;4370363;32;20055;-73
2022/07/31 01:56:01;;;;;;;1.40;1.02;;;;;;;17.06;100.00;98272.91;4371370;32;20099;-73
2022/07/31 01:58:31;;;;;;;1.17;1.10;;;;;;;17.14;100.00;98254.25;4343770;32;20061;-73
2022/07/31 02:01:02;;;;;;;0.98;0.98;;;;;;;17.31;100.00;98272.56;4341275;32;20091;-73
2022/07/31 02:03:30;;;;;;;1.33;1.05;;;;;;;17.19;100.00;98249.47;4339474;32;20232;-73
2022/07/31 02:05:59;;;;;;;0.90;0.90;;;;;;;17.41;100.00;98283.97;4319815;33;20092;-73
2022/07/31 02:08:27;;;;;;;1.05;1.05;;;;;;;17.42;100.00;98252.94;4316220;33;20096;-73
2022/07/31 02:10:56;;;;;;;0.90;0.90;;;;;;;17.76;100.00;98267.00;4318958;33;20052;-73
2022/07/31 02:13:25;;;;;;;1.20;1.20;;;;;;;17.71;100.00;98270.66;4293313;33;20361;-72
2022/07/31 02:15:52;;;;;;;0.85;0.85;;;;;;;17.59;100.00;98235.06;4291935;33;20396;-72
2022/07/31 02:18:20;;;;;;;0.98;0.98;;;;;;;17.24;100.00;98230.28;4293149;33;20033;-72
2022/07/31 02:20:50;;;;;;;0.80;0.80;;;;;;;17.58;100.00;98260.66;4293877;33;20388;-72
2022/07/31 02:23:17;;;;;;;3.58;1.08;;;;;;;17.32;100.00;98253.19;4292865;33;20495;-72
2022/07/31 02:25:45;;;;;;;0.77;0.77;;;;;;;17.59;100.00;98245.97;4294746;33;20071;-72
2022/07/31 02:28:16;;;;;;;0.88;0.88;;;;;;;17.36;100.00;98221.53;4299299;33;20044;-72
2022/07/31 02:30:44;;;;;;;2.23;1.00;;;;;;;17.94;100.00;98252.31;4309303;33;20028;-72
2022/07/31 02:33:13;;;;;;;0.70;0.70;;;;;;;17.10;100.00;98185.25;4306444;33;20037;-73
2022/07/31 02:35:41;;;;;;;0.70;0.70;;;;;;;17.62;100.00;98262.44;4309600;33;20070;-72
2022/07/31 02:38:09;;;;;;;0.95;0.95;;;;;;;17.72;100.00;98250.47;4334690;33;20494;-72
2022/07/31 02:40:38;;;;;;;0.93;0.93;;;;;;;17.41;100.00;98226.03;4338596;32;20044;-72
2022/07/31 02:43:05;;;;;;;5.75;1.17;;;;;;;17.51;100.00;98222.25;4335902;33;20107;-72
2022/07/31 02:45:32;;;;;;;0.70;0.70;;;;;;;17.64;100.00;98264.84;4376092;32;21572;-72
2022/07/31 02:48:00;;;;;;;2.28;1.60;;;;;;;17.42;100.00;98257.56;4373876;32;20129;-72
2022/07/31 02:50:26;;;;;;;4.30;0.80;;;;;;;17.36;100.00;98254.19;4382168;32;20031;-71
2022/07/31 02:52:53;;;;;;;0.77;0.77;;;;;;;16.80;100.00;98149.56;4336725;33;20032;-72
2022/07/31 02:55:20;;;;;;;3.15;0.98;;;;;;;17.29;100.00;98259.28;4334223;33;20036;-71
2022/07/31 02:57:47;;;;;;;0.75;0.75;;;;;;;17.14;100.00;98224.31;4338203;33;20181;-72
2022/07/31 03:00:21;;;;;;;0.65;0.65;;;;;;;17.34;100.00;98250.16;4334944;33;20079;-72
2022/07/31 03:02:49;;;;;;;0.80;0.80;;;;;;;17.59;100.00;98229.62;4338364;33;20107;-73
2022/07/31 03:05:16;;;;;;;0.68;0.68;;;;;;;17.42;100.00;98203.97;4333946;33;20036;-73
2022/07/31 03:07:50;;;;;;;0.95;0.95;;;;;;;17.56;100.00;98262.91;4345759;32;20530;-72
2022/07/31 03:10:16;;;;;;;0.70;0.70;;;;;;;17.57;100.00;98256.37;4364212;32;20077;-72
2022/07/31 03:12:49;;;;;;;0.62;0.62;;;;;;;17.19;100.00;98221.47;4365718;32;20490;-72
2022/07/31 03:15:18;;;;;;;0.90;0.90;;;;;;;17.57;100.00;98231.88;4388230;32;20035;-72
2022/07/31 03:17:53;;;;;;;0.85;0.85;;;;;;;17.50;100.00;98247.84;4348038;32;20166;-72
2022/07/31 03:20:22;;;;;;;0.70;0.70;;;;;;;17.12;100.00;98231.97;4342335;33;20066;-73
2022/07/31 03:22:49;;;;;;;4.07;0.80;;;;;;;17.64;100.00;98248.53;4345200;32;20083;-72
2022/07/31 03:25:16;;;;;;;1.40;1.10;;;;;;;17.31;100.00;98221.69;4359704;32;20047;-72
2022/07/31 03:27:43;;;;;;;0.77;0.77;;;;;;;17.34;100.00;98237.38;4339963;33;20033;-73
2022/07/31 03:30:17;;;;;;;0.90;0.90;;;;;;;17.56;100.00;98224.81;4339361;32;20032;-73
2022/07/31 03:32:44;;;;;;;1.30;1.27;;;;;;;17.37;100.00;98260.44;4340831;32;20039;-74
2022/07/31 03:35:11;;;;;;;1.37;1.37;;;;;;;17.62;100.00;98256.22;4349060;32;20065;-73
2022/07/31 03:37:37;;;;;;;1.42;1.33;;;;;;;17.39;100.00;98244.59;4358695;32;20439;-73
2022/07/31 03:40:11;;;;;;;2.78;1.70;;;;;;;17.13;100.00;98214.56;4354918;32;20106;-72
2022/07/31 03:42:39;;;;;;;2.62;1.52;;;;;;;17.01;100.00;98220.59;4329823;33;20040;-73
2022/07/31 03:45:08;;;;;;;2.22;2.05;;;;;;;17.27;100.00;98245.19;4330522;33;20036;-72
2022/07/31 03:47:35;;;;;;;2.20;2.03;;;;;;;17.17;100.00;98250.91;4335380;33;20118;-73
2022/07/31 03:50:02;;;;;;;1.42;1.33;;;;;;;17.48;100.00;98239.19;4331892;33;20646;-71
2022/07/31 03:52:30;;;;;;;1.55;1.52;;;;;;;17.22;100.00;98253.50;4334256;33;20040;-71
2022/07/31 03:54:57;;;;;;;3.97;1.77;;;;;;;17.39;100.00;98234.53;4331209;33;20043;-74
2022/07/31 03:57:25;;;;;;;1.48;1.35;;;;;;;17.06;100.00;98215.81;4330678;33;20082;-71
2022/07/31 03:59:56;;;;;;;2.80;2.40;;;;;;;17.38;100.00;98251.94;4365657;32;20338;-72
2022/07/31 04:02:26;;;;;;;1.30;1.30;;;;;;;17.46;100.00;98238.72;4374175;32;20065;-72
2022/07/31 04:04:54;;;;;;;6.95;1.50;;;;;;;17.21;100.00;98246.44;4372369;32;20043;-73
2022/07/31 04:07:20;;;;;;;1.50;1.50;;;;;;;17.28;100.00;98246.81;4372167;32;20084;-72
2022/07/31 04:09:48;;;;;;;2.05;1.95;;;;;;;17.12;100.00;98242.84;4377703;32;20043;-72
2022/07/31 04:12:15;;;;;;;1.00;1.00;;;;;;;17.10;100.00;98242.38;4375542;32;20036;-72
2022/07/31 04:14:42;;;;;;;1.15;1.15;;;;;;;16.86;100.00;98206.28;4420096;32;20034;-72
2022/07/31 04:17:08;;;;;;;0.98;0.98;;;;;;;17.24;100.00;98245.81;4410568;32;20065;-72
2022/07/31 04:19:35;;;;;;;1.20;1.20;;;;;;;16.83;100.00;98253.06;4422301;32;20038;-72
2022/07/31 04:22:02;;;;;;;1.30;1.30;;;;;;;16.90;100.00;98214.59;4418153;32;20047;-72
2022/07/31 04:24:34;;;;;;;1.37;1.35;;;;;;;17.18;100.00;98231.56;4422204;32;20037;-73
2022/07/31 04:27:05;;;;;;;1.40;1.40;;;;;;;16.93;100.00;98240.34;4424531;32;20089;-72
2022/07/31 04:29:33;;;;;;;1.60;1.50;;;;;;;16.93;100.00;98246.59;4424249;32;20046;-74
2022/07/31 04:31:59;;;;;;;1.00;1.00;;;;;;;16.96;100.00;98246.00;4424230;32;20035;-72
2022/07/31 04:34:27;;;;;;;0.85;0.85;;;;;;;17.10;100.00;98224.13;4401624;32;20485;-73
2022/07/31 04:36:54;;;;;;;0.93;0.93;;;;;;;16.51;100.00;98210.63;4387690;32;20120;-72
2022/07/31 04:39:20;;;;;;;1.20;1.17;;;;;;;16.85;100.00;98240.00;4379371;32;20073;-72
2022/07/31 04:41:47;;;;;;;1.27;1.27;;;;;;;17.29;100.00;98242.94;4363123;32;20343;-73
2022/07/31 04:44:14;;;;;;;1.23;1.23;;;;;;;17.25;100.00;98252.88;4362176;32;20051;-72
2022/07/31 04:46:42;;;;;;;1.00;1.00;;;;;;;17.23;100.00;98252.34;4362584;32;20117;-72
2022/07/31 04:49:11;;;;;;;0.90;0.90;;;;;;;16.85;100.00;98206.56;4360994;32;20059;-73
2022/07/31 04:51:38;;;;;;;1.08;1.08;;;;;;;16.81;100.00;98181.09;4360681;32;20063;-72
2022/07/31 04:54:05;;;;;;;0.82;0.82;;;;;;;17.40;100.00;98248.91;4365375;32;20035;-72
2022/07/31 04:56:36;;;;;;;1.23;1.10;;;;;;;17.26;100.00;98249.00;4361965;32;20153;-72
2022/07/31 04:59:07;;;;;;;0.80;0.80;;;;;;;16.90;100.00;98230.91;4361268;32;20205;-72
2022/07/31 05:01:36;;;;;;;0.82;0.82;;;;;;;17.04;100.00;98226.19;4355647;32;20045;-71
2022/07/31 05:04:02;;;;;;;1.70;1.10;;;;;;;17.21;100.00;98251.88;4364068;32;20027;-72
2022/07/31 05:06:36;;;;;;;0.98;0.98;;;;;;;17.30;100.00;98239.13;4358302;32;20094;-73
2022/07/31 05:09:05;;;;;;;0.90;0.90;;;;;;;17.47;100.00;98237.56;4390910;32;20063;-72
2022/07/31 05:11:33;;;;;;;0.95;0.95;;;;;;;17.34;100.00;98248.28;4388788;32;20051;-72
2022/07/31 05:14:09;;;;;;;0.82;0.82;;;;;;;16.90;100.00;98209.16;4414284;32;20051;-72
2022/07/31 05:16:37;;;;;;;0.70;0.70;;;;;;;17.34;100.00;98244.72;4386903;32;20413;-72
2022/07/31 05:19:05;;;;;;;1.00;1.00;;;;;;;16.84;100.00;98215.81;4383303;32;20038;-72
2022/07/31 05:21:34;;;;;;;1.10;1.10;;;;;;;16.98;100.00;98246.47;4385259;32;20495;-73
2022/07/31 05:24:01;;;;;;;0.98;0.98;;;;;;;17.21;100.00;98257.31;4383223;32;20043;-72
2022/07/31 05:26:29;;;;;;;0.93;0.93;;;;;;;16.98;100.00;98249.19;4387909;32;20047;-72
2022/07/31 05:29:02;;;;;;;0.82;0.82;;;;;;;17.09;100.00;98244.31;4383860;32;20113;-72
2022/07/31 05:31:29;;;;;;;0.95;0.95;;;;;;;17.04;100.00;98245.22;4388205;32;20093;-73
2022/07/31 05:33:59;;;;;;;1.23;1.23;;;;;;;17.21;100.00;98251.88;4380018;32;20204;-73
2022/07/31 05:36:26;;;;;;;1.27;1.17;;;;;;;17.19;100.00;98254.91;4382348;32;20052;-72
2022/07/31 05:38:53;;;;;;;4.97;1.00;;;;;;;17.23;100.00;98255.06;4387542;32;20077;-72
2022/07/31 05:41:21;;;;;;;2.78;1.12;;;;;;;17.33;100.00;98254.03;4379642;32;20589;-72
2022/07/31 05:43:50;;;;;;;1.00;0.85;;;;;;;17.51;100.00;98250.25;4374052;32;20505;-73
2022/07/31 05:46:18;;;;;;;1.87;1.10;;;;;;;16.87;100.00;98221.44;4374791;32;20069;-72
2022/07/31 05:48:45;;;;;;;0.95;0.95;;;;;;;17.19;100.00;98254.09;4378917;32;20428;-72
2022/07/31 05:51:12;;;;;;;1.37;1.30;;;;;;;17.22;100.00;98248.03;4372934;32;20486;-73
2022/07/31 05:53:40;;;;;;;1.00;1.00;;;;;;;16.89;100.00;98235.53;4371219;32;20083;-73
2022/07/31 05:56:08;;;;;;;1.00;1.00;;;;;;;17.15;100.00;98269.44;4367947;32;20040;-73
2022/07/31 05:58:37;;;;;;;1.15;1.00;;;;;;;17.30;100.00;98262.81;4350355;32;20395;-73
2022/07/31 06:01:03;;;;;;;1.12;1.12;;;;;;;17.13;100.00;98260.78;4350849;32;20152;-74
2022/07/31 06:03:34;;;;;;;1.17;1.17;;;;;;;17.15;100.00;98264.00;4351803;32;20027;-73
2022/07/31 06:06:02;;;;;;;4.90;1.17;;;;;;;16.82;100.00;98220.75;4348559;32;20060;-73
2022/07/31 06:08:29;;;;;;;4.03;1.45;;;;;;;16.89;100.00;98229.31;4350458;32;20204;-74
2022/07/31 06:10:56;;;;;;;1.35;0.93;;;;;;;16.71;100.00;98212.84;4349664;32;20350;-73
2022/07/31 06:13:28;;;;;;;1.27;1.27;;;;;;;16.59;100.00;98237.06;4353478;32;20405;-73
2022/07/31 06:15:59;;;;;;;1.02;1.02;;;;;;;16.89;100.00;98272.81;4320166;33;20075;-74
2022/07/31 06:18:26;;;;;;;0.90;0.90;;;;;;;16.97;100.00;98268.53;4307449;33;20437;-73
2022/07/31 06:20:52;;;;;;;1.12;1.12;;;;;;;16.73;100.00;98257.97;4307796;33;20033;-74
2022/07/31 06:23:19;;;;;;;1.35;1.35;;;;;;;16.84;100.00;98264.75;4318821;33;20074;-73
2022/07/31 06:25:46;;;;;;;1.12;1.00;;;;;;;17.10;100.00;98283.16;4321555;33;20062;-73
2022/07/31 06:28:13;;;;;;;2.03;0.95;;;;;;;16.70;100.00;98273.78;4320511;33;20366;-74
2022/07/31 06:30:39;;;;;;;1.30;1.20;;;;;;;16.94;100.00;98272.66;4340158;32;20184;-73
2022/07/31 06:33:06;;;;;;;1.00;1.00;;;;;;;16.89;100.00;98278.25;4345416;32;20397;-74
2022/07/31 06:35:33;;;;;;;1.17;1.17;;;;;;;16.48;100.00;98241.13;4344343;33;20073;-73
2022/07/31 06:38:01;;;;;;;1.20;1.20;;;;;;;16.43;100.00;98243.97;4317852;33;20036;-73
2022/07/31 06:40:30;;;;;;;1.20;1.15;;;;;;;16.57;100.00;98239.28;4273520;33;20084;-73
2022/07/31 06:43:09;;;;;;;0.95;0.95;;;;;;;16.68;100.00;98227.06;4279512;33;20080;-73
2022/07/31 06:45:42;;;;;;;2.92;1.10;;;;;;;16.87;100.00;98280.47;4274918;33;20451;-73
2022/07/31 06:48:15;;;;;;;0.80;0.80;;;;;;;16.85;100.00;98271.81;4300349;33;20190;-73
2022/07/31 06:50:43;;;;;;;0.90;0.90;;;;;;;16.44;100.00;98251.03;4340381;33;20075;-73
2022/07/31 06:53:10;;;;;;;0.90;0.90;;;;;;;16.89;100.00;98283.69;4342338;33;20130;-72
2022/07/31 06:55:36;;;;;;;0.98;0.98;;;;;;;16.59;100.00;98231.63;4343205;33;20044;-74
2022/07/31 06:58:03;;;;;;;1.00;1.00;;;;;;;16.75;100.00;98256.50;4337935;33;20035;-73
2022/07/31 07:00:30;;;;;;;0.90;0.90;;;;;;;16.78;100.00;98282.28;4332566;33;20036;-73
2022/07/31 07:02:56;;;;;;;0.80;0.80;;;;;;;16.84;100.00;98281.06;4343288;33;20031;-74
2022/07/31 07:05:25;;;;;;;1.23;0.90;;;;;;;16.71;100.00;98278.09;4312054;33;20049;-73
2022/07/31 07:07:52;;;;;;;0.93;0.93;;;;;;;16.21;100.00;98220.28;4281796;33;20588;-73
2022/07/31 07:10:18;;;;;;;0.70;0.70;;;;;;;16.59;100.00;98250.66;4281035;33;20197;-73
2022/07/31 07:12:47;;;;;;;0.95;0.95;;;;;;;16.53;100.00;98239.09;4282045;33;20458;-74
2022/07/31 07:15:14;;;;;;;0.90;0.90;;;;;;;16.52;100.00;98258.44;4293802;33;20029;-73
2022/07/31 07:17:40;;;;;;;1.10;1.10;;;;;;;16.04;100.00;98210.09;4296529;33;20037;-77
2022/07/31 07:20:09;;;;;;;1.23;0.93;;;;;;;16.49;100.00;98250.91;4296219;33;20420;-74
2022/07/31 07:22:35;;;;;;;1.10;1.10;;;;;;;16.48;100.00;98284.59;4299667;33;20078;-74
2022/07/31 07:25:02;;;;;;;0.70;0.70;;;;;;;16.20;100.00;98257.53;4299094;33;20067;-73
2022/07/31 07:27:30;;;;;;;0.90;0.90;;;;;;;16.07;100.00;98259.16;4296856;33;20207;-74
2022/07/31 07:29:58;;;;;;;3.80;1.10;;;;;;;16.40;100.00;98282.62;4297519;33;20434;-76
2022/07/31 07:32:24;;;;;;;1.42;0.90;;;;;;;15.90;100.00;98215.56;4293609;33;20049;-74
2022/07/31 07:34:51;;;;;;;1.00;1.00;;;;;;;16.42;100.00;98296.69;4316986;33;20045;-74
2022/07/31 07:37:18;;;;;;;1.25;1.15;;;;;;;16.40;100.00;98282.62;4325667;33;20092;-74
2022/07/31 07:39:44;;;;;;;0.90;0.90;;;;;;;16.19;100.00;98266.78;4349284;32;20023;-77
2022/07/31 07:42:11;;;;;;;0.80;0.80;;;;;;;16.52;100.00;98296.47;4359298;32;20047;-74
2022/07/31 07:44:38;;;;;;;1.02;1.02;;;;;;;16.79;100.00;98292.06;4379013;32;20641;-73
2022/07/31 07:47:04;;;;;;;0.80;0.80;;;;;;;16.40;100.00;98244.59;4385968;32;20035;-74
2022/07/31 07:49:34;;;;;;;0.70;0.70;;;;;;;16.67;100.00;98249.94;4386612;32;20128;-74
2022/07/31 07:52:05;;;;;;;1.77;0.88;;;;;;;16.27;100.00;98209.00;4380494;32;20056;-74
2022/07/31 07:54:34;;;;;;;0.70;0.70;;;;;;;16.85;100.00;98288.94;4390705;32;20827;-73
2022/07/31 07:57:07;;;;;;;0.70;0.70;;;;;;;16.95;100.00;98306.91;4406300;32;20030;-72
2022/07/31 07:59:39;;;;;;;0.98;0.85;;;;;;;16.68;100.00;98284.13;4409068;32;20097;-76
2022/07/31 08:02:09;;;;;;;1.98;1.87;;;;;;;16.09;100.00;98207.28;4405460;32;20941;-73
2022/07/31 08:04:36;;;;;;;0.65;0.65;;;;;;;16.33;100.00;98240.37;4404530;32;20034;-73
2022/07/31 08:07:03;;;;;;;1.70;0.90;;;;;;;16.49;100.00;98275.34;4405939;32;20230;-73
2022/07/31 08:09:32;;;;;;;0.70;0.70;;;;;;;16.67;100.00;98290.69;4407313;32;20391;-73
2022/07/31 08:12:03;;;;;;;0.70;0.70;;;;;;;16.68;100.00;98259.66;4401882;32;20042;-73
2022/07/31 08:14:40;;;;;;;0.68;0.68;;;;;;;16.80;100.00;98280.88;4409673;32;20111;-72
2022/07/31 08:17:12;;;;;;;0.73;0.73;;;;;;;16.61;100.00;98266.66;4407355;32;20046;-73
2022/07/31 08:19:38;;;;;;;0.80;0.80;;;;;;;17.08;100.00;98285.41;4405699;32;20047;-73
2022/07/31 08:22:05;;;;;;;0.80;0.80;;;;;;;16.82;100.00;98266.97;4410577;32;20077;-74
2022/07/31 08:24:33;;;;;;;0.93;0.82;;;;;;;17.02;100.00;98299.13;4388759;32;20060;-74
2022/07/31 08:29:45;;;;;;;0.80;0.80;;;;;;;17.26;100.00;98303.41;4356185;32;20060;-73
2022/07/31 08:32:13;;;;;;;0.73;0.73;;;;;;;17.08;100.00;98301.72;4357836;32;20065;-72
2022/07/31 08:34:42;;;;;;;0.70;0.70;;;;;;;16.71;100.00;98225.66;4357949;32;20102;-72
2022/07/31 08:37:09;;;;;;;0.62;0.62;;;;;;;16.99;100.00;98305.19;4356982;32;20036;-73
2022/07/31 08:39:37;;;;;;;1.25;0.70;;;;;;;16.52;100.00;98264.66;4355635;32;20493;-73
2022/07/31 08:42:06;;;;;;;0.57;0.57;;;;;;;16.79;100.00;98295.56;4358681;32;20031;-73
2022/07/31 08:44:36;;;;;;;3.03;0.60;;;;;;;16.88;100.00;98271.19;4357646;32;20051;-71
2022/07/31 08:47:08;;;;;;;0.60;0.60;;;;;;;17.54;100.00;98308.69;4360377;32;20044;-76
2022/07/31 08:49:39;;;;;;;0.60;0.60;;;;;;;17.15;100.00;98274.88;4318095;33;20306;-72
2022/07/31 08:52:09;;;;;;;0.57;0.57;;;;;;;17.38;100.00;98306.38;4319770;33;20062;-73
2022/07/31 08:54:42;;;;;;;0.70;0.70;;;;;;;17.72;100.00;98309.56;4315466;33;20049;-73
2022/07/31 08:57:10;;;;;;;1.77;0.60;;;;;;;17.45;100.00;98307.84;4318801;32;20037;-74
2022/07/31 08:59:39;;;;;;;0.70;0.70;;;;;;;16.56;100.00;98264.88;4356557;32;20061;-75
2022/07/31 09:02:09;;;;;;;0.85;0.82;;;;;;;16.98;100.00;98311.72;4349950;32;20629;-74
2022/07/31 09:04:37;;;;;;;0.90;0.90;;;;;;;17.13;100.00;98304.31;4351480;32;20052;-73
2022/07/31 09:07:04;;;;;;;0.88;0.88;;;;;;;17.29;100.00;98312.88;4352152;32;20440;-73
2022/07/31 09:09:31;;;;;;;0.95;0.95;;;;;;;17.22;100.00;98319.56;4352921;32;20048;-73
2022/07/31 09:11:58;;;;;;;0.98;0.98;;;;;;;16.62;100.00;98279.13;4354182;32;20039;-72
2022/07/31 09:14:34;;;;;;;0.80;0.80;;;;;;;16.94;100.00;98307.22;4355406;32;20402;-73
2022/07/31 09:17:06;;;;;;;1.17;0.90;;;;;;;17.28;100.00;98312.09;4353188;32;20458;-73
2022/07/31 09:19:41;;;;;;;1.45;0.90;;;;;;;17.34;100.00;98310.03;4354360;32;20464;-73
2022/07/31 09:22:21;;;;;;;0.80;0.80;;;;;;;17.20;100.00;98318.25;4399330;32;20256;-73
2022/07/31 09:24:48;;;;;;;0.88;0.88;;;;;;;17.37;100.00;98318.38;4375168;32;20095;-73
2022/07/31 09:27:16;;;;;;;4.03;1.00;;;;;;;17.22;100.00;98313.34;4379097;32;20068;-73
2022/07/31 09:29:45;;;;;;;1.20;1.20;;;;;;;17.22;100.00;98305.16;4374789;32;20043;-73
2022/07/31 09:32:16;;;;;;;2.37;1.30;;;;;;;17.28;100.00;98319.44;4337311;32;20493;-73
2022/07/31 09:34:47;;;;;;;1.85;1.10;;;;;;;17.19;100.00;98322.91;4364794;32;20061;-74
2022/07/31 09:37:19;;;;;;;1.05;0.85;;;;;;;17.35;100.00;98323.31;4365346;32;20074;-73
2022/07/31 09:39:54;;;;;;;1.20;1.20;;;;;;;16.85;100.00;98250.06;4365126;32;20059;-73
2022/07/31 09:42:44;;;;;;;0.90;0.90;;;;;;;17.24;100.00;98284.69;4367257;32;20063;-73
2022/07/31 09:45:19;;;;;;;1.00;1.00;;;;;;;17.35;100.00;98317.88;4367419;32;20070;-73
2022/07/31 09:47:46;;;;;;;0.90;0.90;;;;;;;17.29;100.00;98323.78;4362879;32;20481;-75
2022/07/31 09:50:22;;;;;;;0.98;0.98;;;;;;;16.73;100.00;98294.09;4353724;32;20052;-73
2022/07/31 09:52:58;;;;;;;1.23;1.23;;;;;;;17.04;100.00;98264.28;4354365;32;20686;-80
2022/07/31 09:55:25;;;;;;;2.10;1.17;;;;;;;17.34;100.00;98327.19;4360638;32;20542;-76
2022/07/31 09:57:54;;;;;;;1.10;1.10;;;;;;;16.97;100.00;98328.38;4362951;32;20067;-76
2022/07/31 10:00:22;;;;;;;0.80;0.80;;;;;;;17.33;100.00;98303.00;4361284;32;20433;-81
2022/07/31 10:02:51;;;;;;;1.10;1.10;;;;;;;16.96;100.00;98254.16;4387839;32;20054;-78
2022/07/31 10:05:23;;;;;;;1.17;1.17;;;;;;;17.08;100.00;98301.72;4406354;32;20065;-75
2022/07/31 10:07:55;;;;;;;3.53;1.45;;;;;;;17.26;100.00;98308.84;4394200;32;20088;-75
2022/07/31 10:10:23;;;;;;;1.27;1.25;;;;;;;17.24;100.00;98328.22;4409375;32;20411;-74
2022/07/31 10:12:53;;;;;;;1.00;1.00;;;;;;;17.11;100.00;98301.91;4378939;32;20057;-78
2022/07/31 10:15:22;;;;;;;1.60;1.27;;;;;;;17.11;100.00;98306.53;4347482;32;20082;-73
2022/07/31 10:17:51;;;;;;;1.00;1.00;;;;;;;17.20;100.00;98337.31;4353613;32;20070;-74
2022/07/31 10:20:21;;;;;;;2.42;1.37;;;;;;;17.24;100.00;98338.31;4350210;32;20031;-74
2022/07/31 10:23:04;;;;;;;1.20;1.10;;;;;;;16.91;100.00;98303.19;4351526;32;20122;-74
2022/07/31 10:25:38;;;;;;;1.15;0.95;;;;;;;16.98;100.00;98324.53;4330809;33;20068;-74
2022/07/31 10:28:06;;;;;;;1.15;1.15;;;;;;;17.43;100.00;98343.53;4322927;33;20450;-74
2022/07/31 10:30:35;;;;;;;1.77;1.27;;;;;;;17.51;100.00;98325.66;4323943;33;20041;-76
2022/07/31 10:33:04;;;;;;;1.15;1.15;;;;;;;16.98;100.00;98286.47;4326686;33;20044;-77
2022/07/31 10:35:47;;;;;;;0.95;0.95;;;;;;;17.29;100.00;98330.00;4329088;33;20032;-76
2022/07/31 10:38:22;;;;;;;1.00;1.00;;;;;;;17.76;100.00;98322.25;4316636;33;20078;-75
2022/07/31 10:41:08;;;;;;;1.17;1.17;;;;;;;17.56;100.00;98325.50;4319842;33;20080;-76
2022/07/31 10:43:47;;;;;;;1.23;1.23;;;;;;;17.83;100.00;98304.66;4297079;33;20026;-76
2022/07/31 10:46:29;;;;;;;0.98;0.98;;;;;;;17.84;100.00;98308.97;4304913;33;20048;-77
2022/07/31 10:48:58;;;;;;;1.30;1.30;;;;;;;17.92;100.00;98330.03;4318442;33;20082;-76
2022/07/31 10:51:26;;;;;;;1.37;1.37;;;;;;;17.75;100.00;98308.94;4317988;33;20071;-76
2022/07/31 10:53:59;;;;;;;1.73;1.62;;;;;;;17.32;100.00;98285.84;4309959;33;20045;-77
2022/07/31 10:56:27;;;;;;;1.95;1.85;;;;;;;17.74;100.00;98313.59;4308358;33;20055;-77
2022/07/31 10:58:57;;;;;;;1.17;1.17;;;;;;;17.79;100.00;98342.59;4302423;33;20383;-76
2022/07/31 11:01:27;;;;;;;1.00;1.00;;;;;;;17.46;100.00;98268.66;4307779;33;20029;-76
2022/07/31 11:04:02;;;;;;;0.95;0.95;;;;;;;17.73;100.00;98350.09;4319926;33;20052;-76
2022/07/31 11:06:43;;;;;;;0.90;0.90;;;;;;;18.10;100.00;98358.91;4331111;33;20040;-76
2022/07/31 11:09:21;;;;;;;0.95;0.95;;;;;;;18.05;100.00;98345.44;4334703;33;20402;-76
2022/07/31 11:11:49;;;;;;;0.88;0.88;;;;;;;17.90;100.00;98326.78;4307777;33;20070;-77
2022/07/31 11:14:39;;;;;;;0.80;0.80;;;;;;;17.27;100.00;98332.25;4307170;33;20415;-75
2022/07/31 11:17:06;;;;;;;0.85;0.85;;;;;;;18.02;100.00;98376.03;4300558;33;20070;-75
2022/07/31 11:19:39;;;;;;;2.90;1.08;;;;;;;17.57;100.00;98363.31;4301902;33;20180;-76
2022/07/31 11:22:10;;;;;;;0.57;0.57;;;;;;;17.91;100.00;98333.84;4300643;33;20060;-75
2022/07/31 11:24:37;;;;;;;0.77;0.77;;;;;;;18.08;100.00;98377.50;4304902;33;20112;-76
2022/07/31 11:27:03;;;;;;;0.73;0.73;;;;;;;17.66;100.00;98366.06;4307073;33;20449;-76
2022/07/31 11:29:37;;;;;;;0.77;0.77;;;;;;;17.73;100.00;98369.16;4309688;33;20053;-76
2022/07/31 11:32:04;;;;;;;0.65;0.65;;;;;;;17.82;100.00;98382.00;4305600;33;20045;-75
2022/07/31 11:34:42;;;;;;;0.90;0.90;;;;;;;17.53;100.00;98380.56;4294857;33;20106;-76
2022/07/31 11:37:22;;;;;;;0.55;0.55;;;;;;;17.60;100.00;98351.00;4307484;33;20057;-76